sensor_id;sensor_type;location;lat;lon;timestamp;temperature;humidity
23160;DHT22;11748;50.844;4.396;2022-12-18T00:01:12;0.80;99.90
23160;DHT22;11748;50.844;4.396;2022-12-18T00:03:39;0.80;99.90
23160;DHT22;11748;50.844;4.396;2022-12-18T00:06:07;0.80;99.90
23160;DHT22;11748;50.844;4.396;2022-12-18T00:08:34;0.70;99.90
23160;DHT22;11748;50.844;4.396;2022-12-18T00:11:07;0.60;99.90
23160;DHT22;11748;50.844;4.396;2022-12-18T00:13:34;0.60;99.90
23160;DHT22;11748;50.844;4.396;2022-12-18T00:16:09;0.60;99.90
23160;DHT22;11748;50.844;4.396;2022-12-18T00:18:35;0.50;99.90
23160;DHT22;11748;50.844;4.396;2022-12-18T00:21:04;0.50;99.90
23160;DHT22;11748;50.844;4.396;2022-12-18T00:23:31;0.60;99.90
23160;DHT22;11748;50.844;4.396;2022-12-18T00:26:02;0.60;99.90
23160;DHT22;11748;50.844;4.396;2022-12-18T00:28:28;0.50;99.90
23160;DHT22;11748;50.844;4.396;2022-12-18T00:33:28;0.40;99.90
23160;DHT22;11748;50.844;4.396;2022-12-18T00:35:54;0.30;99.90
23160;DHT22;11748;50.844;4.396;2022-12-18T00:38:26;0.40;99.90
23160;DHT22;11748;50.844;4.396;2022-12-18T00:40:52;0.40;99.90
23160;DHT22;11748;50.844;4.396;2022-12-18T00:43:17;0.30;99.90
23160;DHT22;11748;50.844;4.396;2022-12-18T00:45:43;0.20;99.90
23160;DHT22;11748;50.844;4.396;2022-12-18T00:48:09;0.20;99.90
23160;DHT22;11748;50.844;4.396;2022-12-18T00:50:35;0.20;99.90
23160;DHT22;11748;50.844;4.396;2022-12-18T00:53:01;0.30;99.90
23160;DHT22;11748;50.844;4.396;2022-12-18T00:55:26;0.40;99.90
23160;DHT22;11748;50.844;4.396;2022-12-18T00:57:52;0.30;99.90
23160;DHT22;11748;50.844;4.396;2022-12-18T01:00:18;0.20;99.90
23160;DHT22;11748;50.844;4.396;2022-12-18T01:02:43;0.30;99.90
23160;DHT22;11748;50.844;4.396;2022-12-18T01:05:12;0.30;99.90
23160;DHT22;11748;50.844;4.396;2022-12-18T01:07:38;0.40;99.90
23160;DHT22;11748;50.844;4.396;2022-12-18T01:10:04;0.40;99.90
23160;DHT22;11748;50.844;4.396;2022-12-18T01:12:30;0.30;99.90
23160;DHT22;11748;50.844;4.396;2022-12-18T01:14:56;0.20;99.90
23160;DHT22;11748;50.844;4.396;2022-12-18T01:17:22;0.30;99.90
23160;DHT22;11748;50.844;4.396;2022-12-18T01:19:48;0.30;99.90
23160;DHT22;11748;50.844;4.396;2022-12-18T01:22:14;0.40;99.90
23160;DHT22;11748;50.844;4.396;2022-12-18T01:24:39;0.30;99.90
23160;DHT22;11748;50.844;4.396;2022-12-18T01:27:05;0.20;99.90
23160;DHT22;11748;50.844;4.396;2022-12-18T01:29:31;0.20;99.90
23160;DHT22;11748;50.844;4.396;2022-12-18T01:31:56;0.30;99.90
23160;DHT22;11748;50.844;4.396;2022-12-18T01:34:23;0.40;99.90
23160;DHT22;11748;50.844;4.396;2022-12-18T01:36:49;0.40;99.90
23160;DHT22;11748;50.844;4.396;2022-12-18T01:39:18;0.40;99.90
23160;DHT22;11748;50.844;4.396;2022-12-18T01:41:44;0.40;99.90
23160;DHT22;11748;50.844;4.396;2022-12-18T01:50:00;0.40;99.90
23160;DHT22;11748;50.844;4.396;2022-12-18T01:52:30;0.30;99.90
23160;DHT22;11748;50.844;4.396;2022-12-18T01:54:57;0.30;99.90
23160;DHT22;11748;50.844;4.396;2022-12-18T01:57:25;0.40;99.90
23160;DHT22;11748;50.844;4.396;2022-12-18T01:59:53;0.30;99.90
23160;DHT22;11748;50.844;4.396;2022-12-18T02:02:22;0.20;99.90
23160;DHT22;11748;50.844;4.396;2022-12-18T02:04:48;0.20;99.90
23160;DHT22;11748;50.844;4.396;2022-12-18T02:12:46;0.20;99.90
23160;DHT22;11748;50.844;4.396;2022-12-18T02:17:52;0.20;99.90
23160;DHT22;11748;50.844;4.396;2022-12-18T02:20:36;0.20;99.90
23160;DHT22;11748;50.844;4.396;2022-12-18T02:28:35;0.30;99.90
23160;DHT22;11748;50.844;4.396;2022-12-18T02:31:03;0.30;99.90
23160;DHT22;11748;50.844;4.396;2022-12-18T02:33:32;0.20;99.90
23160;DHT22;11748;50.844;4.396;2022-12-18T02:35:59;0.30;99.90
23160;DHT22;11748;50.844;4.396;2022-12-18T02:38:26;0.20;99.90
23160;DHT22;11748;50.844;4.396;2022-12-18T02:40:53;0.20;99.90
23160;DHT22;11748;50.844;4.396;2022-12-18T02:43:20;0.20;99.90
23160;DHT22;11748;50.844;4.396;2022-12-18T02:45:58;0.20;99.90
23160;DHT22;11748;50.844;4.396;2022-12-18T02:48:33;0.20;99.90
23160;DHT22;11748;50.844;4.396;2022-12-18T02:51:08;0.20;99.90
23160;DHT22;11748;50.844;4.396;2022-12-18T02:53:48;0.10;99.90
23160;DHT22;11748;50.844;4.396;2022-12-18T02:56:35;0.00;99.90
23160;DHT22;11748;50.844;4.396;2022-12-18T02:59:13;0.10;99.90
23160;DHT22;11748;50.844;4.396;2022-12-18T03:07:12;0.20;99.90
23160;DHT22;11748;50.844;4.396;2022-12-18T03:09:44;0.20;99.90
23160;DHT22;11748;50.844;4.396;2022-12-18T03:17:35;-0.10;99.90
23160;DHT22;11748;50.844;4.396;2022-12-18T03:20:13;-0.10;99.90
23160;DHT22;11748;50.844;4.396;2022-12-18T03:22:41;-0.20;99.90
23160;DHT22;11748;50.844;4.396;2022-12-18T03:25:10;-0.10;99.90
23160;DHT22;11748;50.844;4.396;2022-12-18T03:27:40;-0.10;99.90
23160;DHT22;11748;50.844;4.396;2022-12-18T03:30:14;-0.20;99.90
23160;DHT22;11748;50.844;4.396;2022-12-18T03:33:18;-0.20;99.90
23160;DHT22;11748;50.844;4.396;2022-12-18T03:35:51;-0.20;99.90
23160;DHT22;11748;50.844;4.396;2022-12-18T03:38:17;-0.20;99.90
23160;DHT22;11748;50.844;4.396;2022-12-18T03:46:19;-0.20;99.90
23160;DHT22;11748;50.844;4.396;2022-12-18T03:48:56;-0.20;99.90
23160;DHT22;11748;50.844;4.396;2022-12-18T03:51:37;-0.20;99.90
23160;DHT22;11748;50.844;4.396;2022-12-18T03:54:07;-0.20;99.90
23160;DHT22;11748;50.844;4.396;2022-12-18T03:56:38;-0.20;99.90
23160;DHT22;11748;50.844;4.396;2022-12-18T03:59:06;-0.30;99.90
23160;DHT22;11748;50.844;4.396;2022-12-18T04:01:37;-0.40;99.90
23160;DHT22;11748;50.844;4.396;2022-12-18T04:04:05;-0.40;99.90
23160;DHT22;11748;50.844;4.396;2022-12-18T04:06:32;-0.50;99.90
23160;DHT22;11748;50.844;4.396;2022-12-18T04:08:58;-0.50;99.90
23160;DHT22;11748;50.844;4.396;2022-12-18T04:11:24;-0.50;99.90
23160;DHT22;11748;50.844;4.396;2022-12-18T04:13:50;-0.50;99.90
23160;DHT22;11748;50.844;4.396;2022-12-18T04:16:20;-0.50;99.90
23160;DHT22;11748;50.844;4.396;2022-12-18T04:18:46;-0.50;99.90
23160;DHT22;11748;50.844;4.396;2022-12-18T04:21:11;-0.50;99.90
23160;DHT22;11748;50.844;4.396;2022-12-18T04:23:38;-0.50;99.90
23160;DHT22;11748;50.844;4.396;2022-12-18T04:26:04;-0.50;99.90
23160;DHT22;11748;50.844;4.396;2022-12-18T04:28:29;-0.50;99.90
23160;DHT22;11748;50.844;4.396;2022-12-18T04:30:55;-0.50;99.90
23160;DHT22;11748;50.844;4.396;2022-12-18T04:33:21;-0.50;99.90
23160;DHT22;11748;50.844;4.396;2022-12-18T04:35:47;-0.50;99.90
23160;DHT22;11748;50.844;4.396;2022-12-18T04:38:12;-0.60;99.90
23160;DHT22;11748;50.844;4.396;2022-12-18T04:40:38;-0.50;99.90
23160;DHT22;11748;50.844;4.396;2022-12-18T04:43:04;-0.50;99.90
23160;DHT22;11748;50.844;4.396;2022-12-18T04:45:31;-0.50;99.90
23160;DHT22;11748;50.844;4.396;2022-12-18T04:47:58;-0.50;99.90
23160;DHT22;11748;50.844;4.396;2022-12-18T04:50:24;-0.50;99.90
23160;DHT22;11748;50.844;4.396;2022-12-18T04:52:49;-0.50;99.90
23160;DHT22;11748;50.844;4.396;2022-12-18T04:55:15;-0.50;99.90
23160;DHT22;11748;50.844;4.396;2022-12-18T04:57:41;-0.50;99.90
23160;DHT22;11748;50.844;4.396;2022-12-18T05:00:08;-0.50;99.90
23160;DHT22;11748;50.844;4.396;2022-12-18T05:02:33;-0.50;99.90
23160;DHT22;11748;50.844;4.396;2022-12-18T05:05:00;-0.50;99.90
23160;DHT22;11748;50.844;4.396;2022-12-18T05:07:26;-0.50;99.90
23160;DHT22;11748;50.844;4.396;2022-12-18T05:09:52;-0.50;99.90
23160;DHT22;11748;50.844;4.396;2022-12-18T05:12:17;-0.60;99.90
23160;DHT22;11748;50.844;4.396;2022-12-18T05:14:43;-0.50;99.90
23160;DHT22;11748;50.844;4.396;2022-12-18T05:17:09;-0.50;99.90
23160;DHT22;11748;50.844;4.396;2022-12-18T05:19:34;-0.50;99.90
23160;DHT22;11748;50.844;4.396;2022-12-18T05:22:01;-0.50;99.90
23160;DHT22;11748;50.844;4.396;2022-12-18T05:24:26;-0.50;99.90
23160;DHT22;11748;50.844;4.396;2022-12-18T05:26:53;-0.50;99.90
23160;DHT22;11748;50.844;4.396;2022-12-18T05:29:19;-0.60;99.90
23160;DHT22;11748;50.844;4.396;2022-12-18T05:31:45;-0.60;99.90
23160;DHT22;11748;50.844;4.396;2022-12-18T05:34:10;-0.60;99.90
23160;DHT22;11748;50.844;4.396;2022-12-18T05:36:36;-0.50;99.90
23160;DHT22;11748;50.844;4.396;2022-12-18T05:39:02;-0.50;99.90
23160;DHT22;11748;50.844;4.396;2022-12-18T05:41:28;-0.50;99.90
23160;DHT22;11748;50.844;4.396;2022-12-18T05:43:55;-0.60;99.90
23160;DHT22;11748;50.844;4.396;2022-12-18T05:46:22;-0.60;99.90
23160;DHT22;11748;50.844;4.396;2022-12-18T05:48:49;-0.60;99.90
23160;DHT22;11748;50.844;4.396;2022-12-18T05:51:18;-0.60;99.90
23160;DHT22;11748;50.844;4.396;2022-12-18T05:53:45;-0.60;99.90
23160;DHT22;11748;50.844;4.396;2022-12-18T05:56:13;-0.60;99.90
23160;DHT22;11748;50.844;4.396;2022-12-18T05:58:40;-0.60;99.90
23160;DHT22;11748;50.844;4.396;2022-12-18T06:01:14;-0.70;99.90
23160;DHT22;11748;50.844;4.396;2022-12-18T06:03:40;-0.80;99.90
23160;DHT22;11748;50.844;4.396;2022-12-18T06:08:40;-0.70;99.90
23160;DHT22;11748;50.844;4.396;2022-12-18T06:11:06;-0.60;99.90
23160;DHT22;11748;50.844;4.396;2022-12-18T06:13:32;-0.50;99.90
23160;DHT22;11748;50.844;4.396;2022-12-18T06:16:02;-0.60;99.90
23160;DHT22;11748;50.844;4.396;2022-12-18T06:18:28;-0.50;99.90
23160;DHT22;11748;50.844;4.396;2022-12-18T06:20:57;-0.60;99.90
23160;DHT22;11748;50.844;4.396;2022-12-18T06:23:24;-0.50;99.90
23160;DHT22;11748;50.844;4.396;2022-12-18T06:25:51;-0.50;99.90
23160;DHT22;11748;50.844;4.396;2022-12-18T06:28:17;-0.50;99.90
23160;DHT22;11748;50.844;4.396;2022-12-18T06:30:47;-0.50;99.90
23160;DHT22;11748;50.844;4.396;2022-12-18T06:33:13;-0.60;99.90
23160;DHT22;11748;50.844;4.396;2022-12-18T06:35:40;-0.60;99.90
23160;DHT22;11748;50.844;4.396;2022-12-18T06:38:06;-0.50;99.90
23160;DHT22;11748;50.844;4.396;2022-12-18T06:40:32;-0.50;99.90
23160;DHT22;11748;50.844;4.396;2022-12-18T06:42:57;-0.50;99.90
23160;DHT22;11748;50.844;4.396;2022-12-18T06:45:23;-0.40;99.90
23160;DHT22;11748;50.844;4.396;2022-12-18T06:47:50;-0.40;99.90
23160;DHT22;11748;50.844;4.396;2022-12-18T06:50:15;-0.40;99.90
23160;DHT22;11748;50.844;4.396;2022-12-18T06:52:41;-0.40;99.90
23160;DHT22;11748;50.844;4.396;2022-12-18T06:55:10;-0.30;99.90
23160;DHT22;11748;50.844;4.396;2022-12-18T06:57:37;-0.30;99.90
23160;DHT22;11748;50.844;4.396;2022-12-18T07:00:04;-0.40;99.90
23160;DHT22;11748;50.844;4.396;2022-12-18T07:02:30;-0.40;99.90
23160;DHT22;11748;50.844;4.396;2022-12-18T07:04:56;-0.50;99.90
23160;DHT22;11748;50.844;4.396;2022-12-18T07:07:21;-0.40;99.90
23160;DHT22;11748;50.844;4.396;2022-12-18T07:09:49;-0.40;99.90
23160;DHT22;11748;50.844;4.396;2022-12-18T07:12:15;-0.40;99.90
23160;DHT22;11748;50.844;4.396;2022-12-18T07:14:41;-0.40;99.90
23160;DHT22;11748;50.844;4.396;2022-12-18T07:17:06;-0.40;99.90
23160;DHT22;11748;50.844;4.396;2022-12-18T07:19:38;-0.30;99.90
23160;DHT22;11748;50.844;4.396;2022-12-18T07:22:04;-0.30;99.90
23160;DHT22;11748;50.844;4.396;2022-12-18T07:24:32;-0.30;99.90
23160;DHT22;11748;50.844;4.396;2022-12-18T07:27:00;-0.30;99.90
23160;DHT22;11748;50.844;4.396;2022-12-18T07:29:26;-0.30;99.90
23160;DHT22;11748;50.844;4.396;2022-12-18T07:31:51;-0.30;99.90
23160;DHT22;11748;50.844;4.396;2022-12-18T07:34:17;-0.30;99.90
23160;DHT22;11748;50.844;4.396;2022-12-18T07:36:43;-0.30;99.90
23160;DHT22;11748;50.844;4.396;2022-12-18T07:39:11;-0.40;99.90
23160;DHT22;11748;50.844;4.396;2022-12-18T07:41:37;-0.60;99.90
23160;DHT22;11748;50.844;4.396;2022-12-18T07:44:02;-0.50;99.90
23160;DHT22;11748;50.844;4.396;2022-12-18T07:46:28;-0.60;99.90
23160;DHT22;11748;50.844;4.396;2022-12-18T07:48:54;-0.60;99.90
23160;DHT22;11748;50.844;4.396;2022-12-18T07:51:20;-0.60;99.90
23160;DHT22;11748;50.844;4.396;2022-12-18T07:53:45;-0.50;99.90
23160;DHT22;11748;50.844;4.396;2022-12-18T07:56:12;-0.40;99.90
23160;DHT22;11748;50.844;4.396;2022-12-18T07:58:38;-0.40;99.90
23160;DHT22;11748;50.844;4.396;2022-12-18T08:01:12;-0.40;99.90
23160;DHT22;11748;50.844;4.396;2022-12-18T08:03:40;-0.40;99.90
23160;DHT22;11748;50.844;4.396;2022-12-18T08:06:08;-0.50;99.90
23160;DHT22;11748;50.844;4.396;2022-12-18T08:08:35;-0.40;99.90
23160;DHT22;11748;50.844;4.396;2022-12-18T08:11:01;-0.50;99.90
23160;DHT22;11748;50.844;4.396;2022-12-18T08:13:27;-0.50;99.90
23160;DHT22;11748;50.844;4.396;2022-12-18T08:16:01;-0.40;99.90
23160;DHT22;11748;50.844;4.396;2022-12-18T08:18:28;-0.30;99.90
23160;DHT22;11748;50.844;4.396;2022-12-18T08:20:54;-0.30;99.90
23160;DHT22;11748;50.844;4.396;2022-12-18T08:23:20;-0.40;99.90
23160;DHT22;11748;50.844;4.396;2022-12-18T08:25:46;-0.30;99.90
23160;DHT22;11748;50.844;4.396;2022-12-18T08:28:12;-0.20;99.90
23160;DHT22;11748;50.844;4.396;2022-12-18T08:30:38;-0.10;99.90
23160;DHT22;11748;50.844;4.396;2022-12-18T08:33:05;-0.10;99.90
23160;DHT22;11748;50.844;4.396;2022-12-18T08:35:35;0.00;99.90
23160;DHT22;11748;50.844;4.396;2022-12-18T08:38:01;0.00;99.90
23160;DHT22;11748;50.844;4.396;2022-12-18T08:40:27;0.20;99.90
23160;DHT22;11748;50.844;4.396;2022-12-18T08:42:53;0.20;99.90
23160;DHT22;11748;50.844;4.396;2022-12-18T08:45:37;0.30;99.90
23160;DHT22;11748;50.844;4.396;2022-12-18T08:48:03;0.20;99.90
23160;DHT22;11748;50.844;4.396;2022-12-18T08:50:28;0.20;99.90
23160;DHT22;11748;50.844;4.396;2022-12-18T08:52:54;0.30;99.90
23160;DHT22;11748;50.844;4.396;2022-12-18T08:55:20;0.40;99.90
23160;DHT22;11748;50.844;4.396;2022-12-18T08:57:48;0.50;99.90
23160;DHT22;11748;50.844;4.396;2022-12-18T09:00:15;0.40;99.90
23160;DHT22;11748;50.844;4.396;2022-12-18T09:02:41;0.50;99.90
23160;DHT22;11748;50.844;4.396;2022-12-18T09:05:06;0.40;99.90
23160;DHT22;11748;50.844;4.396;2022-12-18T09:07:32;0.40;99.90
23160;DHT22;11748;50.844;4.396;2022-12-18T09:09:58;0.60;99.90
23160;DHT22;11748;50.844;4.396;2022-12-18T09:12:23;0.70;99.90
23160;DHT22;11748;50.844;4.396;2022-12-18T09:14:49;0.80;99.90
23160;DHT22;11748;50.844;4.396;2022-12-18T09:17:15;0.90;99.90
23160;DHT22;11748;50.844;4.396;2022-12-18T09:19:41;0.90;99.90
23160;DHT22;11748;50.844;4.396;2022-12-18T09:22:06;0.60;99.90
23160;DHT22;11748;50.844;4.396;2022-12-18T09:24:32;0.60;99.90
23160;DHT22;11748;50.844;4.396;2022-12-18T09:26:58;0.80;99.90
23160;DHT22;11748;50.844;4.396;2022-12-18T09:29:24;0.90;99.90
23160;DHT22;11748;50.844;4.396;2022-12-18T09:31:50;1.10;99.90
23160;DHT22;11748;50.844;4.396;2022-12-18T09:34:16;1.20;99.90
23160;DHT22;11748;50.844;4.396;2022-12-18T09:36:42;1.30;99.90
23160;DHT22;11748;50.844;4.396;2022-12-18T09:39:08;1.40;99.90
23160;DHT22;11748;50.844;4.396;2022-12-18T09:46:43;1.50;99.90
23160;DHT22;11748;50.844;4.396;2022-12-18T09:49:16;1.50;99.90
23160;DHT22;11748;50.844;4.396;2022-12-18T09:51:50;1.40;99.90
23160;DHT22;11748;50.844;4.396;2022-12-18T09:54:35;1.30;99.90
23160;DHT22;11748;50.844;4.396;2022-12-18T09:57:02;1.40;99.90
23160;DHT22;11748;50.844;4.396;2022-12-18T09:59:35;1.50;99.90
23160;DHT22;11748;50.844;4.396;2022-12-18T10:02:17;1.60;99.90
23160;DHT22;11748;50.844;4.396;2022-12-18T10:04:43;1.90;99.90
23160;DHT22;11748;50.844;4.396;2022-12-18T10:07:16;1.80;99.90
23160;DHT22;11748;50.844;4.396;2022-12-18T10:10:26;1.90;99.90
23160;DHT22;11748;50.844;4.396;2022-12-18T10:13:34;2.00;99.90
23160;DHT22;11748;50.844;4.396;2022-12-18T10:21:22;2.20;99.90
23160;DHT22;11748;50.844;4.396;2022-12-18T10:26:19;2.30;99.90
23160;DHT22;11748;50.844;4.396;2022-12-18T10:28:45;2.30;99.90
23160;DHT22;11748;50.844;4.396;2022-12-18T10:31:20;2.30;99.90
23160;DHT22;11748;50.844;4.396;2022-12-18T10:33:46;2.40;99.90
23160;DHT22;11748;50.844;4.396;2022-12-18T10:36:12;2.30;99.90
23160;DHT22;11748;50.844;4.396;2022-12-18T10:38:38;2.30;99.90
23160;DHT22;11748;50.844;4.396;2022-12-18T10:41:25;2.20;99.90
23160;DHT22;11748;50.844;4.396;2022-12-18T10:46:42;2.60;99.90
23160;DHT22;11748;50.844;4.396;2022-12-18T10:49:24;2.70;99.90
23160;DHT22;11748;50.844;4.396;2022-12-18T10:52:19;2.70;99.90
23160;DHT22;11748;50.844;4.396;2022-12-18T10:54:55;2.80;99.90
23160;DHT22;11748;50.844;4.396;2022-12-18T10:57:32;2.90;99.90
23160;DHT22;11748;50.844;4.396;2022-12-18T10:59:59;3.00;99.90
23160;DHT22;11748;50.844;4.396;2022-12-18T11:04:54;3.10;99.90
23160;DHT22;11748;50.844;4.396;2022-12-18T11:07:19;3.10;99.90
23160;DHT22;11748;50.844;4.396;2022-12-18T11:10:00;3.10;99.90
23160;DHT22;11748;50.844;4.396;2022-12-18T11:12:28;3.10;99.90
23160;DHT22;11748;50.844;4.396;2022-12-18T11:14:54;3.20;99.90
23160;DHT22;11748;50.844;4.396;2022-12-18T11:17:32;3.30;99.90
23160;DHT22;11748;50.844;4.396;2022-12-18T11:20:02;3.30;99.90
23160;DHT22;11748;50.844;4.396;2022-12-18T11:22:30;3.40;99.90
23160;DHT22;11748;50.844;4.396;2022-12-18T11:25:02;3.30;99.90
23160;DHT22;11748;50.844;4.396;2022-12-18T11:27:28;3.40;99.90
23160;DHT22;11748;50.844;4.396;2022-12-18T11:33:03;3.30;99.90
23160;DHT22;11748;50.844;4.396;2022-12-18T11:38:16;3.40;99.90
23160;DHT22;11748;50.844;4.396;2022-12-18T11:40:45;3.40;99.90
23160;DHT22;11748;50.844;4.396;2022-12-18T11:43:16;3.50;99.90
23160;DHT22;11748;50.844;4.396;2022-12-18T11:45:51;3.50;99.90
23160;DHT22;11748;50.844;4.396;2022-12-18T11:48:23;3.60;99.90
23160;DHT22;11748;50.844;4.396;2022-12-18T11:50:56;3.50;99.90
23160;DHT22;11748;50.844;4.396;2022-12-18T11:53:26;3.60;99.90
23160;DHT22;11748;50.844;4.396;2022-12-18T11:56:43;3.70;99.90
23160;DHT22;11748;50.844;4.396;2022-12-18T11:59:33;3.80;99.90
23160;DHT22;11748;50.844;4.396;2022-12-18T12:02:20;3.80;99.90
23160;DHT22;11748;50.844;4.396;2022-12-18T12:07:37;3.80;99.90
23160;DHT22;11748;50.844;4.396;2022-12-18T12:21:39;3.90;99.90
23160;DHT22;11748;50.844;4.396;2022-12-18T12:27:35;4.00;99.90
23160;DHT22;11748;50.844;4.396;2022-12-18T12:30:10;4.00;99.90
23160;DHT22;11748;50.844;4.396;2022-12-18T12:35:32;4.00;99.90
23160;DHT22;11748;50.844;4.396;2022-12-18T12:38:10;4.00;99.90
23160;DHT22;11748;50.844;4.396;2022-12-18T12:40:45;4.10;99.90
23160;DHT22;11748;50.844;4.396;2022-12-18T12:43:43;4.10;99.90
23160;DHT22;11748;50.844;4.396;2022-12-18T12:46:12;4.10;99.90
23160;DHT22;11748;50.844;4.396;2022-12-18T12:48:50;4.10;99.90
23160;DHT22;11748;50.844;4.396;2022-12-18T12:53:53;4.20;99.90
23160;DHT22;11748;50.844;4.396;2022-12-18T12:56:21;4.20;99.90
23160;DHT22;11748;50.844;4.396;2022-12-18T13:04:18;4.00;99.90
23160;DHT22;11748;50.844;4.396;2022-12-18T13:09:16;3.80;99.90
23160;DHT22;11748;50.844;4.396;2022-12-18T13:11:44;4.00;99.90
23160;DHT22;11748;50.844;4.396;2022-12-18T13:14:37;4.10;99.90
23160;DHT22;11748;50.844;4.396;2022-12-18T13:19:52;4.10;99.90
23160;DHT22;11748;50.844;4.396;2022-12-18T13:25:02;4.10;99.90
23160;DHT22;11748;50.844;4.396;2022-12-18T13:38:35;4.20;99.90
23160;DHT22;11748;50.844;4.396;2022-12-18T13:43:48;4.20;99.90
23160;DHT22;11748;50.844;4.396;2022-12-18T13:51:22;4.10;99.90
23160;DHT22;11748;50.844;4.396;2022-12-18T13:56:23;4.10;99.90
23160;DHT22;11748;50.844;4.396;2022-12-18T14:02:15;4.00;99.90
23160;DHT22;11748;50.844;4.396;2022-12-18T14:04:35;3.90;99.90
23160;DHT22;11748;50.844;4.396;2022-12-18T14:07:28;3.90;99.90
23160;DHT22;11748;50.844;4.396;2022-12-18T14:09:55;3.90;99.90
23160;DHT22;11748;50.844;4.396;2022-12-18T14:12:28;3.80;99.90
23160;DHT22;11748;50.844;4.396;2022-12-18T14:15:32;3.60;99.90
23160;DHT22;11748;50.844;4.396;2022-12-18T14:20:49;3.70;99.90
23160;DHT22;11748;50.844;4.396;2022-12-18T14:23:47;3.80;99.90
23160;DHT22;11748;50.844;4.396;2022-12-18T14:28:46;3.80;99.90
23160;DHT22;11748;50.844;4.396;2022-12-18T14:31:22;3.70;99.90
23160;DHT22;11748;50.844;4.396;2022-12-18T14:33:49;3.70;99.90
23160;DHT22;11748;50.844;4.396;2022-12-18T14:36:23;3.70;99.90
23160;DHT22;11748;50.844;4.396;2022-12-18T14:38:57;3.70;99.90
23160;DHT22;11748;50.844;4.396;2022-12-18T14:41:29;3.80;99.90
23160;DHT22;11748;50.844;4.396;2022-12-18T14:44:06;3.80;99.90
23160;DHT22;11748;50.844;4.396;2022-12-18T14:46:34;3.80;99.90
23160;DHT22;11748;50.844;4.396;2022-12-18T14:52:00;3.80;99.90
23160;DHT22;11748;50.844;4.396;2022-12-18T14:54:28;3.90;99.90
23160;DHT22;11748;50.844;4.396;2022-12-18T14:59:24;3.80;99.90
23160;DHT22;11748;50.844;4.396;2022-12-18T15:02:30;3.80;99.90
23160;DHT22;11748;50.844;4.396;2022-12-18T15:07:52;3.80;99.90
23160;DHT22;11748;50.844;4.396;2022-12-18T15:10:27;3.80;99.90
23160;DHT22;11748;50.844;4.396;2022-12-18T15:23:23;3.80;99.90
23160;DHT22;11748;50.844;4.396;2022-12-18T15:25:58;3.80;99.90
23160;DHT22;11748;50.844;4.396;2022-12-18T15:36:20;3.80;99.90
23160;DHT22;11748;50.844;4.396;2022-12-18T15:38:51;3.80;99.90
23160;DHT22;11748;50.844;4.396;2022-12-18T15:41:19;3.80;99.90
23160;DHT22;11748;50.844;4.396;2022-12-18T15:43:46;3.90;99.90
23160;DHT22;11748;50.844;4.396;2022-12-18T15:46:21;3.90;99.90
23160;DHT22;11748;50.844;4.396;2022-12-18T15:48:49;3.80;99.90
23160;DHT22;11748;50.844;4.396;2022-12-18T15:51:20;3.80;99.90
23160;DHT22;11748;50.844;4.396;2022-12-18T15:53:48;3.80;99.90
23160;DHT22;11748;50.844;4.396;2022-12-18T15:56:15;3.70;99.90
23160;DHT22;11748;50.844;4.396;2022-12-18T15:59:00;3.70;99.90
23160;DHT22;11748;50.844;4.396;2022-12-18T16:01:28;3.80;99.90
23160;DHT22;11748;50.844;4.396;2022-12-18T16:03:54;3.80;99.90
23160;DHT22;11748;50.844;4.396;2022-12-18T16:06:21;3.90;99.90
23160;DHT22;11748;50.844;4.396;2022-12-18T16:08:47;3.90;99.90
23160;DHT22;11748;50.844;4.396;2022-12-18T16:11:25;3.90;99.90
23160;DHT22;11748;50.844;4.396;2022-12-18T16:14:24;3.90;99.90
23160;DHT22;11748;50.844;4.396;2022-12-18T16:16:56;3.90;99.90
23160;DHT22;11748;50.844;4.396;2022-12-18T16:19:22;3.80;99.90
23160;DHT22;11748;50.844;4.396;2022-12-18T16:21:50;3.90;99.90
23160;DHT22;11748;50.844;4.396;2022-12-18T16:24:17;3.90;99.90
23160;DHT22;11748;50.844;4.396;2022-12-18T16:26:44;3.90;99.90
23160;DHT22;11748;50.844;4.396;2022-12-18T16:29:13;4.00;99.90
23160;DHT22;11748;50.844;4.396;2022-12-18T16:31:42;3.90;99.90
23160;DHT22;11748;50.844;4.396;2022-12-18T16:34:24;3.70;99.90
23160;DHT22;11748;50.844;4.396;2022-12-18T16:36:54;3.80;99.90
23160;DHT22;11748;50.844;4.396;2022-12-18T16:39:20;3.90;99.90
23160;DHT22;11748;50.844;4.396;2022-12-18T16:41:47;3.90;99.90
23160;DHT22;11748;50.844;4.396;2022-12-18T16:44:13;3.90;99.90
23160;DHT22;11748;50.844;4.396;2022-12-18T16:46:39;4.00;99.90
23160;DHT22;11748;50.844;4.396;2022-12-18T16:49:09;4.00;99.90
23160;DHT22;11748;50.844;4.396;2022-12-18T16:51:36;4.00;99.90
23160;DHT22;11748;50.844;4.396;2022-12-18T16:54:05;4.00;99.90
23160;DHT22;11748;50.844;4.396;2022-12-18T16:56:31;4.00;99.90
23160;DHT22;11748;50.844;4.396;2022-12-18T16:58:59;4.00;99.90
23160;DHT22;11748;50.844;4.396;2022-12-18T17:01:29;3.80;99.90
23160;DHT22;11748;50.844;4.396;2022-12-18T17:03:59;3.90;99.90
23160;DHT22;11748;50.844;4.396;2022-12-18T17:06:27;3.90;99.90
23160;DHT22;11748;50.844;4.396;2022-12-18T17:09:01;3.90;99.90
23160;DHT22;11748;50.844;4.396;2022-12-18T17:11:29;4.00;99.90
23160;DHT22;11748;50.844;4.396;2022-12-18T17:13:55;4.10;99.90
23160;DHT22;11748;50.844;4.396;2022-12-18T17:16:21;4.10;99.90
23160;DHT22;11748;50.844;4.396;2022-12-18T17:18:47;4.20;99.90
23160;DHT22;11748;50.844;4.396;2022-12-18T17:21:13;4.20;99.90
23160;DHT22;11748;50.844;4.396;2022-12-18T17:23:43;4.30;99.90
23160;DHT22;11748;50.844;4.396;2022-12-18T17:26:10;4.30;99.90
23160;DHT22;11748;50.844;4.396;2022-12-18T17:28:37;4.40;99.90
23160;DHT22;11748;50.844;4.396;2022-12-18T17:31:16;4.30;99.90
23160;DHT22;11748;50.844;4.396;2022-12-18T17:33:42;4.30;99.90
23160;DHT22;11748;50.844;4.396;2022-12-18T17:36:08;4.30;99.90
23160;DHT22;11748;50.844;4.396;2022-12-18T17:38:35;4.30;99.90
23160;DHT22;11748;50.844;4.396;2022-12-18T17:41:08;4.40;99.90
23160;DHT22;11748;50.844;4.396;2022-12-18T17:43:35;4.30;99.90
23160;DHT22;11748;50.844;4.396;2022-12-18T17:46:05;4.40;99.90
23160;DHT22;11748;50.844;4.396;2022-12-18T17:48:32;4.30;99.90
23160;DHT22;11748;50.844;4.396;2022-12-18T17:51:08;4.40;99.90
23160;DHT22;11748;50.844;4.396;2022-12-18T17:53:34;4.40;99.90
23160;DHT22;11748;50.844;4.396;2022-12-18T17:56:00;4.30;99.90
23160;DHT22;11748;50.844;4.396;2022-12-18T17:58:30;4.30;99.90
23160;DHT22;11748;50.844;4.396;2022-12-18T18:00:56;4.30;99.90
23160;DHT22;11748;50.844;4.396;2022-12-18T18:03:23;4.20;99.90
23160;DHT22;11748;50.844;4.396;2022-12-18T18:06:00;4.20;99.90
23160;DHT22;11748;50.844;4.396;2022-12-18T18:08:27;4.10;99.90
23160;DHT22;11748;50.844;4.396;2022-12-18T18:10:53;4.10;99.90
23160;DHT22;11748;50.844;4.396;2022-12-18T18:13:25;4.00;99.90
23160;DHT22;11748;50.844;4.396;2022-12-18T18:16:11;4.00;99.90
23160;DHT22;11748;50.844;4.396;2022-12-18T18:18:37;4.00;99.90
23160;DHT22;11748;50.844;4.396;2022-12-18T18:21:07;3.90;99.90
23160;DHT22;11748;50.844;4.396;2022-12-18T18:23:35;3.70;99.90
23160;DHT22;11748;50.844;4.396;2022-12-18T18:26:04;3.70;99.90
23160;DHT22;11748;50.844;4.396;2022-12-18T18:28:30;3.70;99.90
23160;DHT22;11748;50.844;4.396;2022-12-18T18:30:56;3.70;99.90
23160;DHT22;11748;50.844;4.396;2022-12-18T18:33:22;3.80;99.90